Tonic Sea — D5AZ8 — position and weather

sailwx.info

Track history (hours):
 
Tides and Currents Weather Stations Pressure Air Temp Water Temp Dewpoint Dewpoint Depression Visibility Wind Speed Wind Dir Waves Ship Positions

Tonic Sea

Last reported at 2014-Jul-23 23:33 UTC. Time now 2014-Jul-24 00:14 UTC.
Position N 32°39' E 034°02'.

Length 229 m; draft 13.4 m.

Type: Cargo ship. MMSI: 636015479.

Date/timePositionNaut miles runAvg speedWind from/ knotsBaromVisibWave heightAir tempDewpointWater temp
2014-Jul-23 23:33N 32°39' E 034°02'0 0.1
2014-Jul-23 22:33N 32°39' E 034°02'0 0.3
2014-Jul-23 21:04N 32°40' E 034°02'0 0.3
2014-Jul-23 20:33N 32°40' E 034°02'0 0.4
2014-Jul-23 19:33N 32°40' E 034°02'0 0.5
2014-Jul-23 18:33N 32°41' E 034°02'1 0.7
2014-Jul-23 17:33N 32°41' E 034°01'1 0.5
2014-Jul-23 16:33N 32°42' E 034°01'4 3.6
2014-Jul-23 15:33N 32°39' E 034°03'5 4.5
2014-Jul-23 14:32N 32°35' E 034°06'1 0.9
2014-Jul-23 13:33N 32°35' E 034°05'1 0.9
2014-Jul-23 12:33N 32°36' E 034°04'1 0.9
2014-Jul-23 11:33N 32°37' E 034°03'1 0.9
2014-Jul-23 10:31N 32°37' E 034°02'1 0.9
2014-Jul-23 09:30N 32°37' E 034°01'1 0.9
2014-Jul-23 08:33N 32°36' E 034°00'1 0.8
2014-Jul-23 07:33N 32°36' E 033°60'1 0.6
2014-Jul-23 06:33N 32°35' E 033°59'1 0.5
2014-Jul-23 05:33N 32°35' E 033°59'0 0.4
2014-Jul-23 04:32N 32°34' E 033°59'0 0.2
2014-Jul-23 03:33N 32°34' E 033°59'0 0.2
2014-Jul-23 02:33N 32°34' E 033°59'0 0.2
2014-Jul-23 01:33N 32°34' E 033°59'0 0.3
2014-Jul-23 00:33N 32°35' E 033°59'0 0.3
2014-Jul-22 23:33N 32°35' E 033°59'0 0.3
2014-Jul-22 22:33N 32°35' E 033°59'0 0.5
2014-Jul-22 21:33N 32°36' E 033°59'1 0.6
2014-Jul-22 20:33N 32°36' E 033°59'1 0.5
2014-Jul-22 19:33N 32°37' E 033°59'1 0.6
2014-Jul-22 18:33N 32°37' E 033°59'1 0.7
2014-Jul-22 17:33N 32°38' E 033°59'1 0.6
2014-Jul-22 16:33N 32°39' E 033°59'1 0.9
2014-Jul-22 15:33N 32°39' E 033°60'9 8.8
2014-Jul-22 14:31N 32°39' E 034°10'1 0.7
2014-Jul-22 13:32N 32°39' E 034°10'7 0.5
2014-Jul-21 22:13N 32°37' E 034°01'0 0.3
2014-Jul-21 21:33N 32°37' E 034°01'  
2014-Jul-17 03:33N 36°22' E 015°09'19 9.7
2014-Jul-17 01:33N 36°27' E 014°45'10 9.7
2014-Jul-17 00:33N 36°29' E 014°34'9 9.3
2014-Jul-16 23:33N 36°31' E 014°23'9 9.2
2014-Jul-16 22:33N 36°34' E 014°11'9 9.3
2014-Jul-16 21:33N 36°36' E 014°00'20 9.0
2014-Jul-16 19:20N 36°40' E 013°36'7 9.2
2014-Jul-16 18:32N 36°42' E 013°27'9 9.6
2014-Jul-16 17:33N 36°45' E 013°16'1010.0
2014-Jul-16 16:33N 36°47' E 013°04'1110.6
2014-Jul-16 15:33N 36°50' E 012°51'1110.6
2014-Jul-16 14:33N 36°52' E 012°38'1010.1
2014-Jul-16 13:33N 36°55' E 012°26'11510.4
2014-Jul-16 02:31N 37°34' E 010°10'27110.5
2014-Jul-15 00:33N 37°12' E 004°30'1010.2
2014-Jul-14 23:33N 37°11' E 004°17'1010.3
2014-Jul-14 22:33N 37°09' E 004°04'1111.0
2014-Jul-14 21:33N 37°09' E 003°51'1110.7
2014-Jul-14 20:33N 37°08' E 003°37'1110.8
2014-Jul-14 19:33N 37°07' E 003°24'1110.8
2014-Jul-14 18:33N 37°06' E 003°10'1010.5
2014-Jul-14 17:33N 37°04' E 002°57'1110.5
2014-Jul-14 16:31N 37°03' E 002°44'1010.9
2014-Jul-14 15:33N 37°02' E 002°31'3510.5
2014-Jul-14 12:13N 36°58' E 001°47'7 9.6
2014-Jul-14 11:30N 36°57' E 001°38'11211.0
2014-Jul-14 01:19N 36°36' W 000°39'810.3
2014-Jul-14 00:33N 36°35' W 000°49'  
Track history (hours):
 
Tides and Currents Weather Stations Pressure Air Temp Water Temp Dewpoint Dewpoint Depression Visibility Wind Speed Wind Dir Waves Ship Positions

Tonic Sea

Last reported at 2014-Jul-23 23:33 UTC. Time now 2014-Jul-24 00:14 UTC.
Position N 32°39' E 034°02'.

Length 229 m; draft 13.4 m.

Type: Cargo ship. MMSI: 636015479.

Date/timePositionNaut miles runAvg speedWind from/ knotsBaromVisibWave heightAir tempDewpointWater temp
2014-Jul-23 23:33N 32°39' E 034°02'0 0.1
2014-Jul-23 22:33N 32°39' E 034°02'0 0.3
2014-Jul-23 21:04N 32°40' E 034°02'0 0.3
2014-Jul-23 20:33N 32°40' E 034°02'0 0.4
2014-Jul-23 19:33N 32°40' E 034°02'0 0.5
2014-Jul-23 18:33N 32°41' E 034°02'1 0.7
2014-Jul-23 17:33N 32°41' E 034°01'1 0.5
2014-Jul-23 16:33N 32°42' E 034°01'4 3.6
2014-Jul-23 15:33N 32°39' E 034°03'5 4.5
2014-Jul-23 14:32N 32°35' E 034°06'1 0.9
2014-Jul-23 13:33N 32°35' E 034°05'1 0.9
2014-Jul-23 12:33N 32°36' E 034°04'1 0.9
2014-Jul-23 11:33N 32°37' E 034°03'1 0.9
2014-Jul-23 10:31N 32°37' E 034°02'1 0.9
2014-Jul-23 09:30N 32°37' E 034°01'1 0.9
2014-Jul-23 08:33N 32°36' E 034°00'1 0.8
2014-Jul-23 07:33N 32°36' E 033°60'1 0.6
2014-Jul-23 06:33N 32°35' E 033°59'1 0.5
2014-Jul-23 05:33N 32°35' E 033°59'0 0.4
2014-Jul-23 04:32N 32°34' E 033°59'0 0.2
2014-Jul-23 03:33N 32°34' E 033°59'0 0.2
2014-Jul-23 02:33N 32°34' E 033°59'0 0.2
2014-Jul-23 01:33N 32°34' E 033°59'0 0.3
2014-Jul-23 00:33N 32°35' E 033°59'0 0.3
2014-Jul-22 23:33N 32°35' E 033°59'0 0.3
2014-Jul-22 22:33N 32°35' E 033°59'0 0.5
2014-Jul-22 21:33N 32°36' E 033°59'1 0.6
2014-Jul-22 20:33N 32°36' E 033°59'1 0.5
2014-Jul-22 19:33N 32°37' E 033°59'1 0.6
2014-Jul-22 18:33N 32°37' E 033°59'1 0.7
2014-Jul-22 17:33N 32°38' E 033°59'1 0.6
2014-Jul-22 16:33N 32°39' E 033°59'1 0.9
2014-Jul-22 15:33N 32°39' E 033°60'9 8.8
2014-Jul-22 14:31N 32°39' E 034°10'1 0.7
2014-Jul-22 13:32N 32°39' E 034°10'7 0.5
2014-Jul-21 22:13N 32°37' E 034°01'0 0.3
2014-Jul-21 21:33N 32°37' E 034°01'  
2014-Jul-17 03:33N 36°22' E 015°09'19 9.7
2014-Jul-17 01:33N 36°27' E 014°45'10 9.7
2014-Jul-17 00:33N 36°29' E 014°34'9 9.3
2014-Jul-16 23:33N 36°31' E 014°23'9 9.2
2014-Jul-16 22:33N 36°34' E 014°11'9 9.3
2014-Jul-16 21:33N 36°36' E 014°00'20 9.0
2014-Jul-16 19:20N 36°40' E 013°36'7 9.2
2014-Jul-16 18:32N 36°42' E 013°27'9 9.6
2014-Jul-16 17:33N 36°45' E 013°16'1010.0
2014-Jul-16 16:33N 36°47' E 013°04'1110.6
2014-Jul-16 15:33N 36°50' E 012°51'1110.6
2014-Jul-16 14:33N 36°52' E 012°38'1010.1
2014-Jul-16 13:33N 36°55' E 012°26'11510.4
2014-Jul-16 02:31N 37°34' E 010°10'27110.5
2014-Jul-15 00:33N 37°12' E 004°30'1010.2
2014-Jul-14 23:33N 37°11' E 004°17'1010.3
2014-Jul-14 22:33N 37°09' E 004°04'1111.0
2014-Jul-14 21:33N 37°09' E 003°51'1110.7
2014-Jul-14 20:33N 37°08' E 003°37'1110.8
2014-Jul-14 19:33N 37°07' E 003°24'1110.8
2014-Jul-14 18:33N 37°06' E 003°10'1010.5
2014-Jul-14 17:33N 37°04' E 002°57'1110.5
2014-Jul-14 16:31N 37°03' E 002°44'1010.9
2014-Jul-14 15:33N 37°02' E 002°31'3510.5
2014-Jul-14 12:13N 36°58' E 001°47'7 9.6
2014-Jul-14 11:30N 36°57' E 001°38'11211.0
2014-Jul-14 01:19N 36°36' W 000°39'810.3
2014-Jul-14 00:33N 36°35' W 000°49'  

Dump ship's entire track history